sensor_id;sensor_type;location;lat;lon;timestamp;P1;durP1;ratioP1;P2;durP2;ratioP2
71806;SDS011;59655;42.590;23.364;2023-09-08T00:00:46;15.27;;;8.85;;
71806;SDS011;59655;42.590;23.364;2023-09-08T00:03:12;11.43;;;8.27;;
71806;SDS011;59655;42.590;23.364;2023-09-08T00:05:37;12.52;;;9.45;;
71806;SDS011;59655;42.590;23.364;2023-09-08T00:08:03;12.18;;;9.23;;
71806;SDS011;59655;42.590;23.364;2023-09-08T00:10:28;12.32;;;8.38;;
71806;SDS011;59655;42.590;23.364;2023-09-08T00:12:54;10.75;;;8.00;;
71806;SDS011;59655;42.590;23.364;2023-09-08T00:15:19;9.93;;;7.65;;
71806;SDS011;59655;42.590;23.364;2023-09-08T00:17:45;10.35;;;8.25;;
71806;SDS011;59655;42.590;23.364;2023-09-08T00:20:12;9.55;;;7.25;;
71806;SDS011;59655;42.590;23.364;2023-09-08T00:22:38;9.48;;;6.68;;
71806;SDS011;59655;42.590;23.364;2023-09-08T00:25:03;9.43;;;6.75;;
71806;SDS011;59655;42.590;23.364;2023-09-08T00:27:30;9.18;;;6.30;;
71806;SDS011;59655;42.590;23.364;2023-09-08T00:29:56;8.48;;;6.13;;
71806;SDS011;59655;42.590;23.364;2023-09-08T00:32:21;12.43;;;6.30;;
71806;SDS011;59655;42.590;23.364;2023-09-08T00:34:46;10.88;;;5.85;;
71806;SDS011;59655;42.590;23.364;2023-09-08T00:37:12;8.90;;;5.72;;
71806;SDS011;59655;42.590;23.364;2023-09-08T00:39:37;9.27;;;5.20;;
71806;SDS011;59655;42.590;23.364;2023-09-08T00:42:03;9.70;;;5.40;;
71806;SDS011;59655;42.590;23.364;2023-09-08T00:44:29;7.47;;;5.40;;
71806;SDS011;59655;42.590;23.364;2023-09-08T00:46:55;9.25;;;5.35;;
71806;SDS011;59655;42.590;23.364;2023-09-08T00:49:21;8.55;;;5.25;;
71806;SDS011;59655;42.590;23.364;2023-09-08T00:51:49;8.10;;;4.38;;
71806;SDS011;59655;42.590;23.364;2023-09-08T00:54:42;7.22;;;4.22;;
71806;SDS011;59655;42.590;23.364;2023-09-08T00:57:08;7.95;;;4.20;;
71806;SDS011;59655;42.590;23.364;2023-09-08T00:59:34;8.50;;;3.90;;
71806;SDS011;59655;42.590;23.364;2023-09-08T01:02:01;7.38;;;4.10;;
71806;SDS011;59655;42.590;23.364;2023-09-08T01:04:27;7.13;;;4.10;;
71806;SDS011;59655;42.590;23.364;2023-09-08T01:06:53;7.57;;;4.20;;
71806;SDS011;59655;42.590;23.364;2023-09-08T01:09:20;8.27;;;4.28;;
71806;SDS011;59655;42.590;23.364;2023-09-08T01:11:46;5.70;;;3.85;;
71806;SDS011;59655;42.590;23.364;2023-09-08T01:14:12;6.43;;;4.32;;
71806;SDS011;59655;42.590;23.364;2023-09-08T01:16:38;10.27;;;4.05;;
71806;SDS011;59655;42.590;23.364;2023-09-08T01:19:06;7.47;;;3.97;;
71806;SDS011;59655;42.590;23.364;2023-09-08T01:26:53;7.65;;;4.22;;
71806;SDS011;59655;42.590;23.364;2023-09-08T01:29:18;7.20;;;3.83;;
71806;SDS011;59655;42.590;23.364;2023-09-08T01:31:44;6.90;;;3.65;;
71806;SDS011;59655;42.590;23.364;2023-09-08T01:34:11;7.90;;;3.80;;
71806;SDS011;59655;42.590;23.364;2023-09-08T01:36:37;6.00;;;4.05;;
71806;SDS011;59655;42.590;23.364;2023-09-08T01:39:02;7.07;;;4.15;;
71806;SDS011;59655;42.590;23.364;2023-09-08T01:41:28;7.68;;;4.50;;
71806;SDS011;59655;42.590;23.364;2023-09-08T01:43:56;8.00;;;4.07;;
71806;SDS011;59655;42.590;23.364;2023-09-08T01:46:22;8.48;;;4.30;;
71806;SDS011;59655;42.590;23.364;2023-09-08T01:48:48;7.68;;;4.15;;
71806;SDS011;59655;42.590;23.364;2023-09-08T01:51:13;6.85;;;4.07;;
71806;SDS011;59655;42.590;23.364;2023-09-08T01:53:38;6.38;;;4.15;;
71806;SDS011;59655;42.590;23.364;2023-09-08T01:56:04;8.55;;;4.18;;
71806;SDS011;59655;42.590;23.364;2023-09-08T02:01:20;7.72;;;4.28;;
71806;SDS011;59655;42.590;23.364;2023-09-08T02:03:45;7.72;;;3.88;;
71806;SDS011;59655;42.590;23.364;2023-09-08T02:06:11;8.00;;;3.90;;
71806;SDS011;59655;42.590;23.364;2023-09-08T02:08:36;9.30;;;4.40;;
71806;SDS011;59655;42.590;23.364;2023-09-08T02:11:02;7.07;;;3.90;;
71806;SDS011;59655;42.590;23.364;2023-09-08T02:13:27;7.07;;;4.10;;
71806;SDS011;59655;42.590;23.364;2023-09-08T02:15:52;5.93;;;3.90;;
71806;SDS011;59655;42.590;23.364;2023-09-08T02:18:18;5.90;;;4.18;;
71806;SDS011;59655;42.590;23.364;2023-09-08T02:20:43;7.45;;;4.60;;
71806;SDS011;59655;42.590;23.364;2023-09-08T02:23:08;7.65;;;4.40;;
71806;SDS011;59655;42.590;23.364;2023-09-08T02:25:34;7.40;;;4.15;;
71806;SDS011;59655;42.590;23.364;2023-09-08T02:27:59;8.80;;;4.38;;
71806;SDS011;59655;42.590;23.364;2023-09-08T02:30:25;9.57;;;4.38;;
71806;SDS011;59655;42.590;23.364;2023-09-08T02:32:50;6.35;;;3.92;;
71806;SDS011;59655;42.590;23.364;2023-09-08T02:35:15;8.68;;;4.13;;
71806;SDS011;59655;42.590;23.364;2023-09-08T02:37:41;9.68;;;4.45;;
71806;SDS011;59655;42.590;23.364;2023-09-08T02:40:06;8.00;;;4.47;;
71806;SDS011;59655;42.590;23.364;2023-09-08T02:42:32;7.38;;;4.25;;
71806;SDS011;59655;42.590;23.364;2023-09-08T02:44:58;8.85;;;4.55;;
71806;SDS011;59655;42.590;23.364;2023-09-08T02:47:23;8.07;;;4.13;;
71806;SDS011;59655;42.590;23.364;2023-09-08T02:49:48;8.98;;;4.10;;
71806;SDS011;59655;42.590;23.364;2023-09-08T02:52:14;7.10;;;4.13;;
71806;SDS011;59655;42.590;23.364;2023-09-08T02:54:40;6.50;;;4.45;;
71806;SDS011;59655;42.590;23.364;2023-09-08T02:57:05;7.15;;;4.00;;
71806;SDS011;59655;42.590;23.364;2023-09-08T02:59:31;7.10;;;4.50;;
71806;SDS011;59655;42.590;23.364;2023-09-08T03:01:56;7.00;;;4.63;;
71806;SDS011;59655;42.590;23.364;2023-09-08T03:04:21;7.00;;;3.88;;
71806;SDS011;59655;42.590;23.364;2023-09-08T03:06:47;8.10;;;4.43;;
71806;SDS011;59655;42.590;23.364;2023-09-08T03:09:12;8.38;;;4.45;;
71806;SDS011;59655;42.590;23.364;2023-09-08T03:11:37;7.03;;;4.40;;
71806;SDS011;59655;42.590;23.364;2023-09-08T03:14:03;6.25;;;3.90;;
71806;SDS011;59655;42.590;23.364;2023-09-08T03:16:28;10.15;;;4.38;;
71806;SDS011;59655;42.590;23.364;2023-09-08T03:18:54;6.88;;;4.60;;
71806;SDS011;59655;42.590;23.364;2023-09-08T03:21:19;7.13;;;4.25;;
71806;SDS011;59655;42.590;23.364;2023-09-08T03:23:45;9.13;;;4.50;;
71806;SDS011;59655;42.590;23.364;2023-09-08T03:26:10;8.27;;;5.10;;
71806;SDS011;59655;42.590;23.364;2023-09-08T03:28:36;8.35;;;4.45;;
71806;SDS011;59655;42.590;23.364;2023-09-08T03:31:03;6.32;;;4.82;;
71806;SDS011;59655;42.590;23.364;2023-09-08T03:33:29;8.98;;;4.78;;
71806;SDS011;59655;42.590;23.364;2023-09-08T03:35:55;9.40;;;4.10;;
71806;SDS011;59655;42.590;23.364;2023-09-08T03:38:20;6.75;;;4.35;;
71806;SDS011;59655;42.590;23.364;2023-09-08T03:40:46;9.52;;;4.35;;
71806;SDS011;59655;42.590;23.364;2023-09-08T03:43:11;6.85;;;4.38;;
71806;SDS011;59655;42.590;23.364;2023-09-08T03:45:37;9.30;;;4.70;;
71806;SDS011;59655;42.590;23.364;2023-09-08T03:48:02;9.35;;;5.47;;
71806;SDS011;59655;42.590;23.364;2023-09-08T03:50:28;9.20;;;5.30;;
71806;SDS011;59655;42.590;23.364;2023-09-08T03:52:54;7.95;;;5.60;;
71806;SDS011;59655;42.590;23.364;2023-09-08T03:55:20;9.75;;;6.55;;
71806;SDS011;59655;42.590;23.364;2023-09-08T03:57:46;11.73;;;6.25;;
71806;SDS011;59655;42.590;23.364;2023-09-08T04:00:11;13.13;;;6.72;;
71806;SDS011;59655;42.590;23.364;2023-09-08T04:05:22;9.57;;;6.35;;
71806;SDS011;59655;42.590;23.364;2023-09-08T04:07:48;9.40;;;6.05;;
71806;SDS011;59655;42.590;23.364;2023-09-08T04:10:13;13.50;;;6.60;;
71806;SDS011;59655;42.590;23.364;2023-09-08T04:12:39;9.30;;;5.72;;
71806;SDS011;59655;42.590;23.364;2023-09-08T04:15:05;9.93;;;5.75;;
71806;SDS011;59655;42.590;23.364;2023-09-08T04:17:31;14.10;;;6.45;;
71806;SDS011;59655;42.590;23.364;2023-09-08T04:19:56;9.40;;;6.03;;
71806;SDS011;59655;42.590;23.364;2023-09-08T04:22:22;13.20;;;6.03;;
71806;SDS011;59655;42.590;23.364;2023-09-08T04:24:47;10.63;;;7.68;;
71806;SDS011;59655;42.590;23.364;2023-09-08T04:27:13;10.90;;;5.70;;
71806;SDS011;59655;42.590;23.364;2023-09-08T04:29:38;8.85;;;5.18;;
71806;SDS011;59655;42.590;23.364;2023-09-08T04:32:04;9.13;;;5.22;;
71806;SDS011;59655;42.590;23.364;2023-09-08T04:34:40;9.35;;;5.35;;
71806;SDS011;59655;42.590;23.364;2023-09-08T04:37:06;11.20;;;5.63;;
71806;SDS011;59655;42.590;23.364;2023-09-08T04:39:32;9.10;;;5.15;;
71806;SDS011;59655;42.590;23.364;2023-09-08T04:41:58;10.63;;;5.50;;
71806;SDS011;59655;42.590;23.364;2023-09-08T04:44:24;10.30;;;5.20;;
71806;SDS011;59655;42.590;23.364;2023-09-08T04:46:50;14.13;;;6.20;;
71806;SDS011;59655;42.590;23.364;2023-09-08T04:49:16;9.98;;;5.40;;
71806;SDS011;59655;42.590;23.364;2023-09-08T04:51:41;7.75;;;5.00;;
71806;SDS011;59655;42.590;23.364;2023-09-08T04:54:07;17.48;;;6.18;;
71806;SDS011;59655;42.590;23.364;2023-09-08T04:56:33;11.02;;;5.97;;
71806;SDS011;59655;42.590;23.364;2023-09-08T04:58:58;12.50;;;6.63;;
71806;SDS011;59655;42.590;23.364;2023-09-08T05:01:25;12.82;;;6.22;;
71806;SDS011;59655;42.590;23.364;2023-09-08T05:03:51;9.40;;;6.32;;
71806;SDS011;59655;42.590;23.364;2023-09-08T05:06:17;17.00;;;9.43;;
71806;SDS011;59655;42.590;23.364;2023-09-08T05:08:42;14.02;;;8.15;;
71806;SDS011;59655;42.590;23.364;2023-09-08T05:11:09;14.45;;;7.07;;
71806;SDS011;59655;42.590;23.364;2023-09-08T05:13:34;11.65;;;7.05;;
71806;SDS011;59655;42.590;23.364;2023-09-08T05:16:00;14.55;;;6.60;;
71806;SDS011;59655;42.590;23.364;2023-09-08T05:18:35;11.90;;;6.30;;
71806;SDS011;59655;42.590;23.364;2023-09-08T05:21:01;8.40;;;5.07;;
71806;SDS011;59655;42.590;23.364;2023-09-08T05:23:26;10.90;;;5.57;;
71806;SDS011;59655;42.590;23.364;2023-09-08T05:25:52;9.45;;;4.82;;
71806;SDS011;59655;42.590;23.364;2023-09-08T05:28:17;8.32;;;4.70;;
71806;SDS011;59655;42.590;23.364;2023-09-08T05:30:45;12.90;;;5.53;;
71806;SDS011;59655;42.590;23.364;2023-09-08T05:33:16;8.00;;;5.15;;
71806;SDS011;59655;42.590;23.364;2023-09-08T05:35:41;8.05;;;4.68;;
71806;SDS011;59655;42.590;23.364;2023-09-08T05:38:07;5.82;;;4.10;;
71806;SDS011;59655;42.590;23.364;2023-09-08T05:40:32;8.23;;;4.10;;
71806;SDS011;59655;42.590;23.364;2023-09-08T05:42:59;6.85;;;4.05;;
71806;SDS011;59655;42.590;23.364;2023-09-08T05:45:24;7.82;;;3.88;;
71806;SDS011;59655;42.590;23.364;2023-09-08T05:47:51;7.18;;;3.75;;
71806;SDS011;59655;42.590;23.364;2023-09-08T05:50:17;6.32;;;3.75;;
71806;SDS011;59655;42.590;23.364;2023-09-08T05:52:43;6.22;;;4.22;;
71806;SDS011;59655;42.590;23.364;2023-09-08T05:55:08;6.75;;;4.07;;
71806;SDS011;59655;42.590;23.364;2023-09-08T05:57:34;8.85;;;4.53;;
71806;SDS011;59655;42.590;23.364;2023-09-08T06:00:00;9.70;;;4.20;;
71806;SDS011;59655;42.590;23.364;2023-09-08T06:02:26;7.00;;;4.20;;
71806;SDS011;59655;42.590;23.364;2023-09-08T06:04:51;7.57;;;4.05;;
71806;SDS011;59655;42.590;23.364;2023-09-08T06:07:16;7.20;;;4.30;;
71806;SDS011;59655;42.590;23.364;2023-09-08T06:09:42;9.00;;;3.90;;
71806;SDS011;59655;42.590;23.364;2023-09-08T06:12:07;5.90;;;3.83;;
71806;SDS011;59655;42.590;23.364;2023-09-08T06:14:33;6.72;;;4.00;;
71806;SDS011;59655;42.590;23.364;2023-09-08T06:16:58;8.27;;;3.85;;
71806;SDS011;59655;42.590;23.364;2023-09-08T06:19:23;5.68;;;3.70;;
71806;SDS011;59655;42.590;23.364;2023-09-08T06:21:49;8.50;;;4.13;;
71806;SDS011;59655;42.590;23.364;2023-09-08T06:24:14;6.55;;;4.20;;
71806;SDS011;59655;42.590;23.364;2023-09-08T06:26:39;6.63;;;4.00;;
71806;SDS011;59655;42.590;23.364;2023-09-08T06:29:05;8.10;;;3.92;;
71806;SDS011;59655;42.590;23.364;2023-09-08T06:31:30;5.88;;;3.90;;
71806;SDS011;59655;42.590;23.364;2023-09-08T06:33:56;7.30;;;3.80;;
71806;SDS011;59655;42.590;23.364;2023-09-08T06:36:21;5.82;;;3.50;;
71806;SDS011;59655;42.590;23.364;2023-09-08T06:38:47;7.82;;;3.90;;
71806;SDS011;59655;42.590;23.364;2023-09-08T06:41:12;8.10;;;3.63;;
71806;SDS011;59655;42.590;23.364;2023-09-08T06:43:38;7.97;;;3.80;;
71806;SDS011;59655;42.590;23.364;2023-09-08T06:46:03;8.30;;;3.70;;
71806;SDS011;59655;42.590;23.364;2023-09-08T06:48:29;8.05;;;3.67;;
71806;SDS011;59655;42.590;23.364;2023-09-08T06:50:55;8.75;;;3.30;;
71806;SDS011;59655;42.590;23.364;2023-09-08T06:53:21;7.90;;;3.30;;
71806;SDS011;59655;42.590;23.364;2023-09-08T06:55:48;7.63;;;3.70;;
71806;SDS011;59655;42.590;23.364;2023-09-08T06:58:13;9.25;;;3.75;;
71806;SDS011;59655;42.590;23.364;2023-09-08T07:00:40;5.95;;;3.45;;
71806;SDS011;59655;42.590;23.364;2023-09-08T07:03:06;6.18;;;3.30;;
71806;SDS011;59655;42.590;23.364;2023-09-08T07:05:33;8.88;;;4.10;;
71806;SDS011;59655;42.590;23.364;2023-09-08T07:08:03;7.88;;;3.38;;
71806;SDS011;59655;42.590;23.364;2023-09-08T07:10:34;5.20;;;3.38;;
71806;SDS011;59655;42.590;23.364;2023-09-08T07:13:00;6.38;;;3.63;;
71806;SDS011;59655;42.590;23.364;2023-09-08T07:15:25;7.03;;;3.50;;
71806;SDS011;59655;42.590;23.364;2023-09-08T07:17:50;4.95;;;3.25;;
71806;SDS011;59655;42.590;23.364;2023-09-08T07:20:16;7.85;;;3.67;;
71806;SDS011;59655;42.590;23.364;2023-09-08T07:22:42;7.93;;;3.35;;
71806;SDS011;59655;42.590;23.364;2023-09-08T07:25:09;6.40;;;3.55;;
71806;SDS011;59655;42.590;23.364;2023-09-08T07:27:34;8.15;;;3.55;;
71806;SDS011;59655;42.590;23.364;2023-09-08T07:30:00;6.30;;;3.10;;
71806;SDS011;59655;42.590;23.364;2023-09-08T07:32:25;6.28;;;3.03;;
71806;SDS011;59655;42.590;23.364;2023-09-08T07:34:50;7.55;;;3.67;;
71806;SDS011;59655;42.590;23.364;2023-09-08T07:37:23;7.03;;;3.28;;
71806;SDS011;59655;42.590;23.364;2023-09-08T07:39:49;7.18;;;3.60;;
71806;SDS011;59655;42.590;23.364;2023-09-08T07:42:16;6.63;;;4.18;;
71806;SDS011;59655;42.590;23.364;2023-09-08T07:44:41;7.10;;;3.50;;
71806;SDS011;59655;42.590;23.364;2023-09-08T07:47:07;7.85;;;3.50;;
71806;SDS011;59655;42.590;23.364;2023-09-08T07:49:35;7.13;;;3.65;;
71806;SDS011;59655;42.590;23.364;2023-09-08T07:52:01;4.95;;;3.17;;
71806;SDS011;59655;42.590;23.364;2023-09-08T07:54:30;6.57;;;3.42;;
71806;SDS011;59655;42.590;23.364;2023-09-08T07:56:55;4.65;;;2.90;;
71806;SDS011;59655;42.590;23.364;2023-09-08T07:59:21;6.70;;;3.25;;
71806;SDS011;59655;42.590;23.364;2023-09-08T08:01:46;6.95;;;2.85;;
71806;SDS011;59655;42.590;23.364;2023-09-08T08:04:12;7.60;;;3.15;;
71806;SDS011;59655;42.590;23.364;2023-09-08T08:06:37;6.82;;;3.38;;
71806;SDS011;59655;42.590;23.364;2023-09-08T08:09:03;6.10;;;3.55;;
71806;SDS011;59655;42.590;23.364;2023-09-08T08:11:28;5.40;;;3.30;;
71806;SDS011;59655;42.590;23.364;2023-09-08T08:13:53;5.97;;;3.03;;
71806;SDS011;59655;42.590;23.364;2023-09-08T08:16:19;5.82;;;3.03;;
71806;SDS011;59655;42.590;23.364;2023-09-08T08:18:46;6.50;;;3.22;;
71806;SDS011;59655;42.590;23.364;2023-09-08T08:21:12;5.63;;;3.13;;
71806;SDS011;59655;42.590;23.364;2023-09-08T08:23:38;4.53;;;3.08;;
71806;SDS011;59655;42.590;23.364;2023-09-08T08:26:04;7.10;;;3.28;;
71806;SDS011;59655;42.590;23.364;2023-09-08T08:28:29;5.70;;;3.38;;
71806;SDS011;59655;42.590;23.364;2023-09-08T08:30:55;5.18;;;3.10;;
71806;SDS011;59655;42.590;23.364;2023-09-08T08:33:21;8.10;;;3.53;;
71806;SDS011;59655;42.590;23.364;2023-09-08T08:35:50;5.05;;;3.10;;
71806;SDS011;59655;42.590;23.364;2023-09-08T08:38:17;6.72;;;3.33;;
71806;SDS011;59655;42.590;23.364;2023-09-08T08:40:42;6.40;;;3.60;;
71806;SDS011;59655;42.590;23.364;2023-09-08T08:43:08;7.75;;;4.25;;
71806;SDS011;59655;42.590;23.364;2023-09-08T08:45:33;7.30;;;3.30;;
71806;SDS011;59655;42.590;23.364;2023-09-08T08:48:01;9.57;;;4.75;;
71806;SDS011;59655;42.590;23.364;2023-09-08T08:50:28;5.63;;;3.15;;
71806;SDS011;59655;42.590;23.364;2023-09-08T08:52:55;5.75;;;3.70;;
71806;SDS011;59655;42.590;23.364;2023-09-08T08:55:21;7.80;;;3.42;;
71806;SDS011;59655;42.590;23.364;2023-09-08T08:57:48;9.55;;;4.00;;
71806;SDS011;59655;42.590;23.364;2023-09-08T09:00:14;11.48;;;4.15;;
71806;SDS011;59655;42.590;23.364;2023-09-08T09:02:41;6.80;;;3.35;;
71806;SDS011;59655;42.590;23.364;2023-09-08T09:05:16;8.00;;;3.80;;
71806;SDS011;59655;42.590;23.364;2023-09-08T09:07:42;6.60;;;3.53;;
71806;SDS011;59655;42.590;23.364;2023-09-08T09:10:09;9.48;;;3.78;;
71806;SDS011;59655;42.590;23.364;2023-09-08T09:12:36;8.93;;;3.30;;
71806;SDS011;59655;42.590;23.364;2023-09-08T09:15:03;6.22;;;3.38;;
71806;SDS011;59655;42.590;23.364;2023-09-08T09:17:33;7.95;;;4.13;;
71806;SDS011;59655;42.590;23.364;2023-09-08T09:20:15;5.53;;;3.25;;
71806;SDS011;59655;42.590;23.364;2023-09-08T09:22:42;6.20;;;3.78;;
71806;SDS011;59655;42.590;23.364;2023-09-08T09:25:09;6.55;;;3.47;;
71806;SDS011;59655;42.590;23.364;2023-09-08T09:27:35;7.88;;;3.83;;
71806;SDS011;59655;42.590;23.364;2023-09-08T09:30:03;7.78;;;3.90;;
71806;SDS011;59655;42.590;23.364;2023-09-08T09:32:29;7.68;;;3.80;;
71806;SDS011;59655;42.590;23.364;2023-09-08T09:34:56;9.43;;;3.42;;
71806;SDS011;59655;42.590;23.364;2023-09-08T09:37:22;8.02;;;3.80;;
71806;SDS011;59655;42.590;23.364;2023-09-08T09:39:51;7.63;;;3.67;;
71806;SDS011;59655;42.590;23.364;2023-09-08T09:42:19;6.60;;;3.70;;
71806;SDS011;59655;42.590;23.364;2023-09-08T09:44:48;8.15;;;3.85;;
71806;SDS011;59655;42.590;23.364;2023-09-08T09:47:16;4.82;;;3.47;;
71806;SDS011;59655;42.590;23.364;2023-09-08T09:49:42;6.72;;;3.65;;
71806;SDS011;59655;42.590;23.364;2023-09-08T09:52:09;6.18;;;3.53;;
71806;SDS011;59655;42.590;23.364;2023-09-08T09:54:38;9.98;;;3.80;;
71806;SDS011;59655;42.590;23.364;2023-09-08T09:57:07;6.75;;;4.10;;
71806;SDS011;59655;42.590;23.364;2023-09-08T09:59:36;5.32;;;3.30;;
71806;SDS011;59655;42.590;23.364;2023-09-08T10:02:02;7.32;;;4.03;;
71806;SDS011;59655;42.590;23.364;2023-09-08T10:04:28;5.50;;;3.38;;
71806;SDS011;59655;42.590;23.364;2023-09-08T10:06:54;7.85;;;3.60;;
71806;SDS011;59655;42.590;23.364;2023-09-08T10:09:23;5.95;;;3.50;;
71806;SDS011;59655;42.590;23.364;2023-09-08T10:11:48;6.28;;;4.03;;
71806;SDS011;59655;42.590;23.364;2023-09-08T10:14:15;7.63;;;3.17;;
71806;SDS011;59655;42.590;23.364;2023-09-08T10:16:44;6.82;;;3.42;;
71806;SDS011;59655;42.590;23.364;2023-09-08T10:19:14;6.13;;;3.80;;
71806;SDS011;59655;42.590;23.364;2023-09-08T10:21:47;5.90;;;3.13;;
71806;SDS011;59655;42.590;23.364;2023-09-08T10:24:23;5.57;;;3.10;;
71806;SDS011;59655;42.590;23.364;2023-09-08T10:27:04;8.95;;;3.55;;
71806;SDS011;59655;42.590;23.364;2023-09-08T10:29:36;8.07;;;3.28;;
71806;SDS011;59655;42.590;23.364;2023-09-08T10:32:02;6.18;;;3.50;;
71806;SDS011;59655;42.590;23.364;2023-09-08T10:34:28;8.73;;;3.78;;
71806;SDS011;59655;42.590;23.364;2023-09-08T10:36:55;6.07;;;3.58;;
71806;SDS011;59655;42.590;23.364;2023-09-08T10:39:30;7.88;;;3.50;;
71806;SDS011;59655;42.590;23.364;2023-09-08T10:47:13;5.93;;;3.50;;
71806;SDS011;59655;42.590;23.364;2023-09-08T10:49:40;8.00;;;3.50;;
71806;SDS011;59655;42.590;23.364;2023-09-08T10:52:08;6.43;;;3.47;;
71806;SDS011;59655;42.590;23.364;2023-09-08T10:57:07;7.32;;;3.10;;
71806;SDS011;59655;42.590;23.364;2023-09-08T10:59:38;7.28;;;3.50;;
71806;SDS011;59655;42.590;23.364;2023-09-08T11:02:04;9.73;;;4.13;;
71806;SDS011;59655;42.590;23.364;2023-09-08T11:04:29;4.82;;;3.28;;
71806;SDS011;59655;42.590;23.364;2023-09-08T11:06:58;5.35;;;3.08;;
71806;SDS011;59655;42.590;23.364;2023-09-08T11:09:23;7.05;;;3.60;;
71806;SDS011;59655;42.590;23.364;2023-09-08T11:11:49;6.50;;;3.38;;
71806;SDS011;59655;42.590;23.364;2023-09-08T11:14:15;8.05;;;4.00;;
71806;SDS011;59655;42.590;23.364;2023-09-08T11:16:41;7.18;;;3.50;;
71806;SDS011;59655;42.590;23.364;2023-09-08T11:19:06;7.45;;;3.78;;
71806;SDS011;59655;42.590;23.364;2023-09-08T11:21:34;8.63;;;4.03;;
71806;SDS011;59655;42.590;23.364;2023-09-08T11:24:03;5.20;;;3.40;;
71806;SDS011;59655;42.590;23.364;2023-09-08T11:26:31;4.95;;;3.22;;
71806;SDS011;59655;42.590;23.364;2023-09-08T11:28:58;9.15;;;3.42;;
71806;SDS011;59655;42.590;23.364;2023-09-08T11:31:23;9.77;;;4.10;;
71806;SDS011;59655;42.590;23.364;2023-09-08T11:33:49;16.35;;;9.48;;
71806;SDS011;59655;42.590;23.364;2023-09-08T11:36:14;18.02;;;10.45;;
71806;SDS011;59655;42.590;23.364;2023-09-08T11:38:41;43.20;;;23.73;;
71806;SDS011;59655;42.590;23.364;2023-09-08T11:41:08;19.10;;;12.20;;
71806;SDS011;59655;42.590;23.364;2023-09-08T11:43:33;39.42;;;23.45;;
71806;SDS011;59655;42.590;23.364;2023-09-08T11:45:59;13.48;;;6.40;;
71806;SDS011;59655;42.590;23.364;2023-09-08T11:48:25;17.35;;;9.70;;
71806;SDS011;59655;42.590;23.364;2023-09-08T11:50:55;27.40;;;16.90;;
71806;SDS011;59655;42.590;23.364;2023-09-08T11:53:20;7.93;;;4.72;;
71806;SDS011;59655;42.590;23.364;2023-09-08T11:55:46;21.40;;;11.50;;
71806;SDS011;59655;42.590;23.364;2023-09-08T11:58:12;13.05;;;8.45;;
71806;SDS011;59655;42.590;23.364;2023-09-08T12:00:38;11.65;;;6.82;;
71806;SDS011;59655;42.590;23.364;2023-09-08T12:03:09;9.27;;;5.90;;
71806;SDS011;59655;42.590;23.364;2023-09-08T12:05:36;8.23;;;4.10;;
71806;SDS011;59655;42.590;23.364;2023-09-08T12:08:03;8.98;;;5.40;;
71806;SDS011;59655;42.590;23.364;2023-09-08T12:10:39;10.20;;;6.03;;
71806;SDS011;59655;42.590;23.364;2023-09-08T12:13:06;6.53;;;4.68;;
71806;SDS011;59655;42.590;23.364;2023-09-08T12:15:35;9.05;;;5.43;;
71806;SDS011;59655;42.590;23.364;2023-09-08T12:18:05;15.73;;;9.48;;
71806;SDS011;59655;42.590;23.364;2023-09-08T12:20:35;14.77;;;7.50;;
71806;SDS011;59655;42.590;23.364;2023-09-08T12:23:03;10.77;;;7.03;;
71806;SDS011;59655;42.590;23.364;2023-09-08T12:25:47;13.70;;;7.30;;
71806;SDS011;59655;42.590;23.364;2023-09-08T12:28:13;9.57;;;5.35;;
71806;SDS011;59655;42.590;23.364;2023-09-08T12:30:39;13.52;;;7.00;;
71806;SDS011;59655;42.590;23.364;2023-09-08T12:33:04;7.88;;;4.35;;
71806;SDS011;59655;42.590;23.364;2023-09-08T12:35:30;14.50;;;9.00;;
71806;SDS011;59655;42.590;23.364;2023-09-08T12:38:01;13.60;;;8.20;;
71806;SDS011;59655;42.590;23.364;2023-09-08T12:40:30;8.55;;;4.75;;
71806;SDS011;59655;42.590;23.364;2023-09-08T12:42:59;6.25;;;4.15;;
71806;SDS011;59655;42.590;23.364;2023-09-08T12:45:25;6.10;;;4.10;;
71806;SDS011;59655;42.590;23.364;2023-09-08T12:47:51;6.45;;;4.43;;
71806;SDS011;59655;42.590;23.364;2023-09-08T12:50:17;11.13;;;5.22;;
71806;SDS011;59655;42.590;23.364;2023-09-08T12:52:44;8.40;;;4.10;;
71806;SDS011;59655;42.590;23.364;2023-09-08T12:55:10;7.65;;;4.43;;
71806;SDS011;59655;42.590;23.364;2023-09-08T12:57:36;8.15;;;4.32;;
71806;SDS011;59655;42.590;23.364;2023-09-08T13:00:02;8.02;;;4.57;;
71806;SDS011;59655;42.590;23.364;2023-09-08T13:02:28;5.68;;;4.13;;
71806;SDS011;59655;42.590;23.364;2023-09-08T13:04:54;12.70;;;6.20;;
71806;SDS011;59655;42.590;23.364;2023-09-08T13:07:20;8.43;;;4.55;;
71806;SDS011;59655;42.590;23.364;2023-09-08T13:09:45;7.55;;;3.90;;
71806;SDS011;59655;42.590;23.364;2023-09-08T13:12:11;6.60;;;4.85;;
71806;SDS011;59655;42.590;23.364;2023-09-08T13:14:38;10.02;;;4.65;;
71806;SDS011;59655;42.590;23.364;2023-09-08T13:17:04;6.65;;;4.15;;
71806;SDS011;59655;42.590;23.364;2023-09-08T13:19:30;7.10;;;4.03;;
71806;SDS011;59655;42.590;23.364;2023-09-08T13:21:56;7.13;;;3.70;;
71806;SDS011;59655;42.590;23.364;2023-09-08T13:24:22;6.70;;;3.40;;
71806;SDS011;59655;42.590;23.364;2023-09-08T13:26:47;6.47;;;3.60;;
71806;SDS011;59655;42.590;23.364;2023-09-08T13:29:13;6.18;;;3.88;;
71806;SDS011;59655;42.590;23.364;2023-09-08T13:31:38;11.48;;;4.60;;
71806;SDS011;59655;42.590;23.364;2023-09-08T13:34:04;5.85;;;3.75;;
71806;SDS011;59655;42.590;23.364;2023-09-08T13:36:30;5.05;;;3.42;;
71806;SDS011;59655;42.590;23.364;2023-09-08T13:38:55;7.50;;;3.92;;
71806;SDS011;59655;42.590;23.364;2023-09-08T13:41:20;5.38;;;3.80;;
71806;SDS011;59655;42.590;23.364;2023-09-08T13:43:46;7.55;;;3.40;;
71806;SDS011;59655;42.590;23.364;2023-09-08T13:46:11;5.55;;;3.90;;
71806;SDS011;59655;42.590;23.364;2023-09-08T13:48:37;8.07;;;4.13;;
71806;SDS011;59655;42.590;23.364;2023-09-08T13:51:02;7.57;;;4.03;;
71806;SDS011;59655;42.590;23.364;2023-09-08T13:53:28;7.43;;;4.15;;
71806;SDS011;59655;42.590;23.364;2023-09-08T13:55:58;7.60;;;4.25;;
71806;SDS011;59655;42.590;23.364;2023-09-08T13:58:24;6.88;;;4.10;;
71806;SDS011;59655;42.590;23.364;2023-09-08T14:00:50;9.02;;;4.18;;
71806;SDS011;59655;42.590;23.364;2023-09-08T14:03:18;7.50;;;4.03;;
71806;SDS011;59655;42.590;23.364;2023-09-08T14:05:44;6.88;;;4.75;;
71806;SDS011;59655;42.590;23.364;2023-09-08T14:08:09;6.53;;;3.88;;
71806;SDS011;59655;42.590;23.364;2023-09-08T14:10:35;9.80;;;4.60;;
71806;SDS011;59655;42.590;23.364;2023-09-08T14:13:02;7.97;;;4.07;;
71806;SDS011;59655;42.590;23.364;2023-09-08T14:15:27;5.50;;;3.70;;
71806;SDS011;59655;42.590;23.364;2023-09-08T14:17:53;7.25;;;4.63;;
71806;SDS011;59655;42.590;23.364;2023-09-08T14:20:18;6.10;;;3.78;;
71806;SDS011;59655;42.590;23.364;2023-09-08T14:22:44;7.10;;;3.85;;
71806;SDS011;59655;42.590;23.364;2023-09-08T14:25:09;8.02;;;3.95;;
71806;SDS011;59655;42.590;23.364;2023-09-08T14:27:35;9.70;;;4.22;;
71806;SDS011;59655;42.590;23.364;2023-09-08T14:30:02;7.60;;;4.00;;
71806;SDS011;59655;42.590;23.364;2023-09-08T14:32:29;7.50;;;3.55;;
71806;SDS011;59655;42.590;23.364;2023-09-08T14:34:54;5.13;;;3.75;;
71806;SDS011;59655;42.590;23.364;2023-09-08T14:37:21;6.72;;;3.95;;
71806;SDS011;59655;42.590;23.364;2023-09-08T14:39:46;6.60;;;3.70;;
71806;SDS011;59655;42.590;23.364;2023-09-08T14:42:12;6.65;;;3.83;;
71806;SDS011;59655;42.590;23.364;2023-09-08T14:44:39;10.20;;;5.13;;
71806;SDS011;59655;42.590;23.364;2023-09-08T14:47:04;8.02;;;3.85;;